sensor_id;sensor_type;location;lat;lon;timestamp;P1;durP1;ratioP1;P2;durP2;ratioP2
55186;SDS011;55457;52.002;5.464;2023-04-28T00:00:44;5.22;;;3.55;;
55186;SDS011;55457;52.002;5.464;2023-04-28T00:03:11;4.40;;;3.40;;
55186;SDS011;55457;52.002;5.464;2023-04-28T00:05:37;3.85;;;3.25;;
55186;SDS011;55457;52.002;5.464;2023-04-28T00:08:02;4.82;;;3.70;;
55186;SDS011;55457;52.002;5.464;2023-04-28T00:10:28;5.47;;;3.72;;
55186;SDS011;55457;52.002;5.464;2023-04-28T00:12:54;4.75;;;3.47;;
55186;SDS011;55457;52.002;5.464;2023-04-28T00:15:20;4.25;;;3.22;;
55186;SDS011;55457;52.002;5.464;2023-04-28T00:17:45;4.07;;;3.05;;
55186;SDS011;55457;52.002;5.464;2023-04-28T00:20:10;4.95;;;3.60;;
55186;SDS011;55457;52.002;5.464;2023-04-28T00:22:36;4.50;;;3.60;;
55186;SDS011;55457;52.002;5.464;2023-04-28T00:25:01;6.55;;;3.47;;
55186;SDS011;55457;52.002;5.464;2023-04-28T00:27:27;4.05;;;3.53;;
55186;SDS011;55457;52.002;5.464;2023-04-28T00:29:52;5.22;;;3.45;;
55186;SDS011;55457;52.002;5.464;2023-04-28T00:32:18;5.03;;;3.58;;
55186;SDS011;55457;52.002;5.464;2023-04-28T00:34:43;4.35;;;3.13;;
55186;SDS011;55457;52.002;5.464;2023-04-28T00:37:08;3.47;;;2.83;;
55186;SDS011;55457;52.002;5.464;2023-04-28T00:39:34;5.32;;;3.60;;
55186;SDS011;55457;52.002;5.464;2023-04-28T00:41:59;5.68;;;3.50;;
55186;SDS011;55457;52.002;5.464;2023-04-28T00:44:26;5.78;;;3.67;;
55186;SDS011;55457;52.002;5.464;2023-04-28T00:46:51;4.65;;;3.38;;
55186;SDS011;55457;52.002;5.464;2023-04-28T00:49:17;3.80;;;3.40;;
55186;SDS011;55457;52.002;5.464;2023-04-28T00:51:42;4.60;;;3.20;;
55186;SDS011;55457;52.002;5.464;2023-04-28T00:54:08;4.13;;;3.10;;
55186;SDS011;55457;52.002;5.464;2023-04-28T00:56:37;3.95;;;3.28;;
55186;SDS011;55457;52.002;5.464;2023-04-28T00:59:03;4.18;;;3.40;;
55186;SDS011;55457;52.002;5.464;2023-04-28T01:01:28;5.22;;;3.55;;
55186;SDS011;55457;52.002;5.464;2023-04-28T01:03:54;3.88;;;3.25;;
55186;SDS011;55457;52.002;5.464;2023-04-28T01:06:19;4.45;;;3.53;;
55186;SDS011;55457;52.002;5.464;2023-04-28T01:08:46;3.78;;;3.15;;
55186;SDS011;55457;52.002;5.464;2023-04-28T01:11:12;4.18;;;3.17;;
55186;SDS011;55457;52.002;5.464;2023-04-28T01:13:38;4.70;;;3.28;;
55186;SDS011;55457;52.002;5.464;2023-04-28T01:16:04;5.38;;;4.00;;
55186;SDS011;55457;52.002;5.464;2023-04-28T01:18:31;4.35;;;3.38;;
55186;SDS011;55457;52.002;5.464;2023-04-28T01:20:57;4.28;;;3.80;;
55186;SDS011;55457;52.002;5.464;2023-04-28T01:23:22;4.22;;;3.65;;
55186;SDS011;55457;52.002;5.464;2023-04-28T01:25:47;4.00;;;2.88;;
55186;SDS011;55457;52.002;5.464;2023-04-28T01:28:12;4.78;;;3.30;;
55186;SDS011;55457;52.002;5.464;2023-04-28T01:30:38;4.45;;;3.75;;
55186;SDS011;55457;52.002;5.464;2023-04-28T01:33:03;4.63;;;3.53;;
55186;SDS011;55457;52.002;5.464;2023-04-28T01:35:28;4.70;;;3.58;;
55186;SDS011;55457;52.002;5.464;2023-04-28T01:37:54;3.53;;;2.97;;
55186;SDS011;55457;52.002;5.464;2023-04-28T01:40:19;3.80;;;3.08;;
55186;SDS011;55457;52.002;5.464;2023-04-28T01:42:45;4.30;;;3.28;;
55186;SDS011;55457;52.002;5.464;2023-04-28T01:45:10;5.85;;;3.55;;
55186;SDS011;55457;52.002;5.464;2023-04-28T01:47:36;4.60;;;3.40;;
55186;SDS011;55457;52.002;5.464;2023-04-28T01:50:01;5.25;;;3.33;;
55186;SDS011;55457;52.002;5.464;2023-04-28T01:52:27;5.05;;;3.65;;
55186;SDS011;55457;52.002;5.464;2023-04-28T01:54:53;4.65;;;3.28;;
55186;SDS011;55457;52.002;5.464;2023-04-28T01:57:18;6.38;;;3.47;;
55186;SDS011;55457;52.002;5.464;2023-04-28T01:59:44;3.85;;;3.10;;
55186;SDS011;55457;52.002;5.464;2023-04-28T02:02:10;4.53;;;3.58;;
55186;SDS011;55457;52.002;5.464;2023-04-28T02:04:36;5.35;;;3.20;;
55186;SDS011;55457;52.002;5.464;2023-04-28T02:07:05;4.80;;;3.65;;
55186;SDS011;55457;52.002;5.464;2023-04-28T02:09:31;4.10;;;3.17;;
55186;SDS011;55457;52.002;5.464;2023-04-28T02:11:57;4.03;;;3.10;;
55186;SDS011;55457;52.002;5.464;2023-04-28T02:14:24;4.57;;;3.25;;
55186;SDS011;55457;52.002;5.464;2023-04-28T02:16:49;5.07;;;3.50;;
55186;SDS011;55457;52.002;5.464;2023-04-28T02:19:14;4.47;;;3.67;;
55186;SDS011;55457;52.002;5.464;2023-04-28T02:21:40;3.75;;;3.00;;
55186;SDS011;55457;52.002;5.464;2023-04-28T02:24:07;5.03;;;3.58;;
55186;SDS011;55457;52.002;5.464;2023-04-28T02:26:32;4.68;;;3.47;;
55186;SDS011;55457;52.002;5.464;2023-04-28T02:28:58;5.18;;;3.50;;
55186;SDS011;55457;52.002;5.464;2023-04-28T02:31:24;5.07;;;3.72;;
55186;SDS011;55457;52.002;5.464;2023-04-28T02:33:49;4.50;;;3.22;;
55186;SDS011;55457;52.002;5.464;2023-04-28T02:36:14;3.92;;;3.25;;
55186;SDS011;55457;52.002;5.464;2023-04-28T02:38:40;3.83;;;2.97;;
55186;SDS011;55457;52.002;5.464;2023-04-28T02:41:06;3.97;;;3.22;;
55186;SDS011;55457;52.002;5.464;2023-04-28T02:43:33;3.80;;;3.20;;
55186;SDS011;55457;52.002;5.464;2023-04-28T02:46:01;3.97;;;3.40;;
55186;SDS011;55457;52.002;5.464;2023-04-28T02:48:28;4.95;;;3.17;;
55186;SDS011;55457;52.002;5.464;2023-04-28T02:50:53;4.90;;;3.63;;
55186;SDS011;55457;52.002;5.464;2023-04-28T02:53:19;4.68;;;3.50;;
55186;SDS011;55457;52.002;5.464;2023-04-28T02:55:45;4.57;;;3.53;;
55186;SDS011;55457;52.002;5.464;2023-04-28T02:58:10;4.28;;;3.17;;
55186;SDS011;55457;52.002;5.464;2023-04-28T03:00:36;5.38;;;3.75;;
55186;SDS011;55457;52.002;5.464;2023-04-28T03:03:01;4.10;;;3.22;;
55186;SDS011;55457;52.002;5.464;2023-04-28T03:05:27;5.15;;;3.90;;
55186;SDS011;55457;52.002;5.464;2023-04-28T03:07:52;3.47;;;3.10;;
55186;SDS011;55457;52.002;5.464;2023-04-28T03:10:18;4.30;;;3.08;;
55186;SDS011;55457;52.002;5.464;2023-04-28T03:12:43;5.50;;;3.30;;
55186;SDS011;55457;52.002;5.464;2023-04-28T03:15:08;4.18;;;3.17;;
55186;SDS011;55457;52.002;5.464;2023-04-28T03:17:34;3.55;;;3.15;;
55186;SDS011;55457;52.002;5.464;2023-04-28T03:20:02;4.13;;;3.22;;
55186;SDS011;55457;52.002;5.464;2023-04-28T03:22:28;3.85;;;2.63;;
55186;SDS011;55457;52.002;5.464;2023-04-28T03:24:53;4.55;;;3.10;;
55186;SDS011;55457;52.002;5.464;2023-04-28T03:27:19;4.55;;;3.47;;
55186;SDS011;55457;52.002;5.464;2023-04-28T03:29:45;4.88;;;3.80;;
55186;SDS011;55457;52.002;5.464;2023-04-28T03:32:10;4.18;;;3.55;;
55186;SDS011;55457;52.002;5.464;2023-04-28T03:34:36;3.90;;;2.80;;
55186;SDS011;55457;52.002;5.464;2023-04-28T03:37:01;4.85;;;3.50;;
55186;SDS011;55457;52.002;5.464;2023-04-28T03:39:26;4.93;;;3.70;;
55186;SDS011;55457;52.002;5.464;2023-04-28T03:41:52;4.05;;;3.20;;
55186;SDS011;55457;52.002;5.464;2023-04-28T03:44:17;4.55;;;3.10;;
55186;SDS011;55457;52.002;5.464;2023-04-28T03:46:43;4.10;;;3.22;;
55186;SDS011;55457;52.002;5.464;2023-04-28T03:49:08;4.93;;;3.88;;
55186;SDS011;55457;52.002;5.464;2023-04-28T03:51:33;4.38;;;3.13;;
55186;SDS011;55457;52.002;5.464;2023-04-28T03:53:59;4.25;;;2.70;;
55186;SDS011;55457;52.002;5.464;2023-04-28T03:56:24;4.32;;;3.53;;
55186;SDS011;55457;52.002;5.464;2023-04-28T03:58:50;3.85;;;3.15;;
55186;SDS011;55457;52.002;5.464;2023-04-28T04:01:15;4.20;;;3.00;;
55186;SDS011;55457;52.002;5.464;2023-04-28T04:03:41;4.03;;;3.10;;
55186;SDS011;55457;52.002;5.464;2023-04-28T04:06:06;3.60;;;3.00;;
55186;SDS011;55457;52.002;5.464;2023-04-28T04:08:32;4.53;;;3.33;;
55186;SDS011;55457;52.002;5.464;2023-04-28T04:10:57;3.72;;;2.83;;
55186;SDS011;55457;52.002;5.464;2023-04-28T04:13:23;3.80;;;3.28;;
55186;SDS011;55457;52.002;5.464;2023-04-28T04:15:48;3.55;;;2.85;;
55186;SDS011;55457;52.002;5.464;2023-04-28T04:18:14;4.60;;;3.38;;
55186;SDS011;55457;52.002;5.464;2023-04-28T04:20:40;4.18;;;3.58;;
55186;SDS011;55457;52.002;5.464;2023-04-28T04:23:05;4.45;;;3.00;;
55186;SDS011;55457;52.002;5.464;2023-04-28T04:25:31;4.53;;;3.38;;
55186;SDS011;55457;52.002;5.464;2023-04-28T04:27:56;3.80;;;2.85;;
55186;SDS011;55457;52.002;5.464;2023-04-28T04:30:23;4.28;;;3.40;;
55186;SDS011;55457;52.002;5.464;2023-04-28T04:32:48;4.55;;;3.28;;
55186;SDS011;55457;52.002;5.464;2023-04-28T04:35:13;3.45;;;2.67;;
55186;SDS011;55457;52.002;5.464;2023-04-28T04:37:38;5.32;;;3.45;;
55186;SDS011;55457;52.002;5.464;2023-04-28T04:40:04;4.88;;;3.28;;
55186;SDS011;55457;52.002;5.464;2023-04-28T04:42:30;4.13;;;3.10;;
55186;SDS011;55457;52.002;5.464;2023-04-28T04:44:56;3.80;;;3.08;;
55186;SDS011;55457;52.002;5.464;2023-04-28T04:47:21;4.57;;;3.55;;
55186;SDS011;55457;52.002;5.464;2023-04-28T04:49:47;4.32;;;3.55;;
55186;SDS011;55457;52.002;5.464;2023-04-28T04:52:13;4.65;;;3.47;;
55186;SDS011;55457;52.002;5.464;2023-04-28T04:54:39;3.90;;;2.83;;
55186;SDS011;55457;52.002;5.464;2023-04-28T04:57:04;5.53;;;3.78;;
55186;SDS011;55457;52.002;5.464;2023-04-28T04:59:31;4.20;;;3.15;;
55186;SDS011;55457;52.002;5.464;2023-04-28T05:01:56;4.47;;;3.00;;
55186;SDS011;55457;52.002;5.464;2023-04-28T05:04:21;3.90;;;3.28;;
55186;SDS011;55457;52.002;5.464;2023-04-28T05:06:47;3.60;;;3.22;;
55186;SDS011;55457;52.002;5.464;2023-04-28T05:09:12;4.30;;;3.20;;
55186;SDS011;55457;52.002;5.464;2023-04-28T05:11:37;4.70;;;3.03;;
55186;SDS011;55457;52.002;5.464;2023-04-28T05:14:03;4.88;;;3.35;;
55186;SDS011;55457;52.002;5.464;2023-04-28T05:16:28;4.53;;;3.10;;
55186;SDS011;55457;52.002;5.464;2023-04-28T05:18:53;4.07;;;3.17;;
55186;SDS011;55457;52.002;5.464;2023-04-28T05:21:19;4.38;;;3.50;;
55186;SDS011;55457;52.002;5.464;2023-04-28T05:23:44;3.60;;;2.88;;
55186;SDS011;55457;52.002;5.464;2023-04-28T05:26:10;4.47;;;3.28;;
55186;SDS011;55457;52.002;5.464;2023-04-28T05:28:35;4.82;;;3.50;;
55186;SDS011;55457;52.002;5.464;2023-04-28T05:31:00;5.13;;;2.90;;
55186;SDS011;55457;52.002;5.464;2023-04-28T05:33:26;4.60;;;3.47;;
55186;SDS011;55457;52.002;5.464;2023-04-28T05:35:51;4.28;;;3.50;;
55186;SDS011;55457;52.002;5.464;2023-04-28T05:38:16;4.75;;;3.78;;
55186;SDS011;55457;52.002;5.464;2023-04-28T05:40:42;3.60;;;2.75;;
55186;SDS011;55457;52.002;5.464;2023-04-28T05:43:07;4.63;;;3.85;;
55186;SDS011;55457;52.002;5.464;2023-04-28T05:45:32;4.53;;;3.15;;
55186;SDS011;55457;52.002;5.464;2023-04-28T05:47:58;4.35;;;3.03;;
55186;SDS011;55457;52.002;5.464;2023-04-28T05:50:24;4.50;;;3.50;;
55186;SDS011;55457;52.002;5.464;2023-04-28T05:52:50;4.60;;;3.17;;
55186;SDS011;55457;52.002;5.464;2023-04-28T05:55:15;4.32;;;3.42;;
55186;SDS011;55457;52.002;5.464;2023-04-28T05:57:40;4.90;;;3.35;;
55186;SDS011;55457;52.002;5.464;2023-04-28T06:00:06;3.90;;;3.42;;
55186;SDS011;55457;52.002;5.464;2023-04-28T06:02:33;4.63;;;2.90;;
55186;SDS011;55457;52.002;5.464;2023-04-28T06:04:58;3.83;;;3.25;;
55186;SDS011;55457;52.002;5.464;2023-04-28T06:07:23;4.38;;;3.63;;
55186;SDS011;55457;52.002;5.464;2023-04-28T06:09:49;3.50;;;3.13;;
55186;SDS011;55457;52.002;5.464;2023-04-28T06:12:14;3.65;;;3.10;;
55186;SDS011;55457;52.002;5.464;2023-04-28T06:14:40;5.78;;;3.58;;
55186;SDS011;55457;52.002;5.464;2023-04-28T06:17:05;5.88;;;3.85;;
55186;SDS011;55457;52.002;5.464;2023-04-28T06:19:30;5.25;;;3.35;;
55186;SDS011;55457;52.002;5.464;2023-04-28T06:21:56;4.10;;;3.50;;
55186;SDS011;55457;52.002;5.464;2023-04-28T06:24:21;4.70;;;3.53;;
55186;SDS011;55457;52.002;5.464;2023-04-28T06:26:46;4.40;;;3.17;;
55186;SDS011;55457;52.002;5.464;2023-04-28T06:29:12;5.13;;;3.42;;
55186;SDS011;55457;52.002;5.464;2023-04-28T06:31:37;4.53;;;3.67;;
55186;SDS011;55457;52.002;5.464;2023-04-28T06:34:03;4.32;;;3.53;;
55186;SDS011;55457;52.002;5.464;2023-04-28T06:36:28;5.55;;;3.30;;
55186;SDS011;55457;52.002;5.464;2023-04-28T06:38:53;4.93;;;3.45;;
55186;SDS011;55457;52.002;5.464;2023-04-28T06:41:19;4.10;;;3.33;;
55186;SDS011;55457;52.002;5.464;2023-04-28T06:43:45;4.10;;;2.95;;
55186;SDS011;55457;52.002;5.464;2023-04-28T06:46:10;6.28;;;3.90;;
55186;SDS011;55457;52.002;5.464;2023-04-28T06:48:35;3.90;;;3.50;;
55186;SDS011;55457;52.002;5.464;2023-04-28T06:51:01;4.70;;;3.90;;
55186;SDS011;55457;52.002;5.464;2023-04-28T06:53:28;4.75;;;3.83;;
55186;SDS011;55457;52.002;5.464;2023-04-28T06:55:53;6.13;;;3.45;;
55186;SDS011;55457;52.002;5.464;2023-04-28T06:58:19;3.88;;;3.47;;
55186;SDS011;55457;52.002;5.464;2023-04-28T07:00:44;4.28;;;3.13;;
55186;SDS011;55457;52.002;5.464;2023-04-28T07:03:10;3.92;;;3.13;;
55186;SDS011;55457;52.002;5.464;2023-04-28T07:05:35;5.60;;;3.67;;
55186;SDS011;55457;52.002;5.464;2023-04-28T07:08:01;3.78;;;2.88;;
55186;SDS011;55457;52.002;5.464;2023-04-28T07:10:27;5.60;;;3.80;;
55186;SDS011;55457;52.002;5.464;2023-04-28T07:12:52;3.78;;;3.33;;
55186;SDS011;55457;52.002;5.464;2023-04-28T07:15:18;5.35;;;3.22;;
55186;SDS011;55457;52.002;5.464;2023-04-28T07:17:43;4.03;;;3.38;;
55186;SDS011;55457;52.002;5.464;2023-04-28T07:20:08;4.00;;;3.35;;
55186;SDS011;55457;52.002;5.464;2023-04-28T07:22:34;3.85;;;2.90;;
55186;SDS011;55457;52.002;5.464;2023-04-28T07:24:59;4.05;;;3.17;;
55186;SDS011;55457;52.002;5.464;2023-04-28T07:27:25;5.15;;;3.33;;
55186;SDS011;55457;52.002;5.464;2023-04-28T07:29:50;4.93;;;3.97;;
55186;SDS011;55457;52.002;5.464;2023-04-28T07:32:15;4.88;;;3.85;;
55186;SDS011;55457;52.002;5.464;2023-04-28T07:34:41;4.00;;;3.13;;
55186;SDS011;55457;52.002;5.464;2023-04-28T07:37:06;5.25;;;3.70;;
55186;SDS011;55457;52.002;5.464;2023-04-28T07:39:32;6.07;;;3.15;;
55186;SDS011;55457;52.002;5.464;2023-04-28T07:42:01;4.88;;;3.65;;
55186;SDS011;55457;52.002;5.464;2023-04-28T07:44:27;4.20;;;3.80;;
55186;SDS011;55457;52.002;5.464;2023-04-28T07:46:53;5.93;;;4.10;;
55186;SDS011;55457;52.002;5.464;2023-04-28T07:49:18;5.43;;;3.67;;
55186;SDS011;55457;52.002;5.464;2023-04-28T07:51:44;5.28;;;4.35;;
55186;SDS011;55457;52.002;5.464;2023-04-28T07:54:09;4.93;;;3.63;;
55186;SDS011;55457;52.002;5.464;2023-04-28T07:56:34;4.95;;;3.88;;
55186;SDS011;55457;52.002;5.464;2023-04-28T07:59:00;4.70;;;3.33;;
55186;SDS011;55457;52.002;5.464;2023-04-28T08:01:25;3.85;;;3.22;;
55186;SDS011;55457;52.002;5.464;2023-04-28T08:03:50;4.00;;;3.45;;
55186;SDS011;55457;52.002;5.464;2023-04-28T08:06:16;4.45;;;3.65;;
55186;SDS011;55457;52.002;5.464;2023-04-28T08:08:42;7.45;;;3.90;;
55186;SDS011;55457;52.002;5.464;2023-04-28T08:11:07;4.93;;;4.00;;
55186;SDS011;55457;52.002;5.464;2023-04-28T08:13:32;5.88;;;3.75;;
55186;SDS011;55457;52.002;5.464;2023-04-28T08:15:58;6.00;;;4.28;;
55186;SDS011;55457;52.002;5.464;2023-04-28T08:18:26;4.40;;;3.47;;
55186;SDS011;55457;52.002;5.464;2023-04-28T08:20:53;5.65;;;3.78;;
55186;SDS011;55457;52.002;5.464;2023-04-28T08:23:19;4.10;;;3.60;;
55186;SDS011;55457;52.002;5.464;2023-04-28T08:25:45;4.72;;;4.00;;
55186;SDS011;55457;52.002;5.464;2023-04-28T08:28:11;4.68;;;3.63;;
55186;SDS011;55457;52.002;5.464;2023-04-28T08:30:37;5.68;;;3.72;;
55186;SDS011;55457;52.002;5.464;2023-04-28T08:33:03;4.93;;;4.00;;
55186;SDS011;55457;52.002;5.464;2023-04-28T08:35:28;4.80;;;3.90;;
55186;SDS011;55457;52.002;5.464;2023-04-28T08:37:54;6.60;;;4.32;;
55186;SDS011;55457;52.002;5.464;2023-04-28T08:40:19;5.07;;;3.80;;
55186;SDS011;55457;52.002;5.464;2023-04-28T08:42:45;4.72;;;3.85;;
55186;SDS011;55457;52.002;5.464;2023-04-28T08:45:12;4.10;;;3.25;;
55186;SDS011;55457;52.002;5.464;2023-04-28T08:47:38;4.80;;;4.00;;
55186;SDS011;55457;52.002;5.464;2023-04-28T08:50:10;5.65;;;3.58;;
55186;SDS011;55457;52.002;5.464;2023-04-28T08:52:37;5.82;;;4.18;;
55186;SDS011;55457;52.002;5.464;2023-04-28T08:55:07;4.38;;;3.25;;
55186;SDS011;55457;52.002;5.464;2023-04-28T08:57:36;4.70;;;3.47;;
55186;SDS011;55457;52.002;5.464;2023-04-28T09:00:03;6.13;;;4.22;;
55186;SDS011;55457;52.002;5.464;2023-04-28T09:02:29;6.05;;;4.40;;
55186;SDS011;55457;52.002;5.464;2023-04-28T09:04:54;4.50;;;3.70;;
55186;SDS011;55457;52.002;5.464;2023-04-28T09:07:20;5.32;;;4.00;;
55186;SDS011;55457;52.002;5.464;2023-04-28T09:09:46;6.70;;;4.45;;
55186;SDS011;55457;52.002;5.464;2023-04-28T09:12:11;7.10;;;4.13;;
55186;SDS011;55457;52.002;5.464;2023-04-28T09:14:37;4.60;;;4.18;;
55186;SDS011;55457;52.002;5.464;2023-04-28T09:17:10;5.43;;;3.58;;
55186;SDS011;55457;52.002;5.464;2023-04-28T09:19:37;5.82;;;4.05;;
55186;SDS011;55457;52.002;5.464;2023-04-28T09:22:04;5.72;;;3.92;;
55186;SDS011;55457;52.002;5.464;2023-04-28T09:24:31;5.15;;;4.28;;
55186;SDS011;55457;52.002;5.464;2023-04-28T09:27:00;5.97;;;3.75;;
55186;SDS011;55457;52.002;5.464;2023-04-28T09:29:27;6.40;;;4.15;;
55186;SDS011;55457;52.002;5.464;2023-04-28T09:31:53;5.40;;;3.50;;
55186;SDS011;55457;52.002;5.464;2023-04-28T09:34:20;4.65;;;3.67;;
55186;SDS011;55457;52.002;5.464;2023-04-28T09:36:46;5.45;;;3.78;;
55186;SDS011;55457;52.002;5.464;2023-04-28T09:39:11;5.88;;;4.15;;
55186;SDS011;55457;52.002;5.464;2023-04-28T09:41:38;4.85;;;3.75;;
55186;SDS011;55457;52.002;5.464;2023-04-28T09:44:14;6.22;;;4.32;;
55186;SDS011;55457;52.002;5.464;2023-04-28T09:46:39;4.93;;;3.50;;
55186;SDS011;55457;52.002;5.464;2023-04-28T09:49:06;5.32;;;4.20;;
55186;SDS011;55457;52.002;5.464;2023-04-28T09:51:31;5.10;;;3.60;;
55186;SDS011;55457;52.002;5.464;2023-04-28T09:53:58;4.13;;;3.15;;
55186;SDS011;55457;52.002;5.464;2023-04-28T09:56:26;4.53;;;3.65;;
55186;SDS011;55457;52.002;5.464;2023-04-28T09:58:54;4.03;;;3.33;;
55186;SDS011;55457;52.002;5.464;2023-04-28T10:01:22;6.05;;;4.30;;
55186;SDS011;55457;52.002;5.464;2023-04-28T10:03:48;5.05;;;4.00;;
55186;SDS011;55457;52.002;5.464;2023-04-28T10:06:16;5.72;;;4.05;;
55186;SDS011;55457;52.002;5.464;2023-04-28T10:08:41;6.40;;;4.28;;
55186;SDS011;55457;52.002;5.464;2023-04-28T10:11:06;5.80;;;3.80;;
55186;SDS011;55457;52.002;5.464;2023-04-28T10:13:33;5.00;;;4.15;;
55186;SDS011;55457;52.002;5.464;2023-04-28T10:16:00;4.57;;;4.10;;
55186;SDS011;55457;52.002;5.464;2023-04-28T10:18:26;5.20;;;4.20;;
55186;SDS011;55457;52.002;5.464;2023-04-28T10:20:56;5.78;;;3.97;;
55186;SDS011;55457;52.002;5.464;2023-04-28T10:26:10;5.82;;;4.35;;
55186;SDS011;55457;52.002;5.464;2023-04-28T10:28:47;5.80;;;3.78;;
55186;SDS011;55457;52.002;5.464;2023-04-28T10:31:15;6.07;;;3.50;;
55186;SDS011;55457;52.002;5.464;2023-04-28T10:33:48;5.13;;;3.97;;
55186;SDS011;55457;52.002;5.464;2023-04-28T10:39:14;5.93;;;4.20;;
55186;SDS011;55457;52.002;5.464;2023-04-28T10:41:40;4.97;;;3.60;;
55186;SDS011;55457;52.002;5.464;2023-04-28T11:00:41;5.55;;;3.95;;
55186;SDS011;55457;52.002;5.464;2023-04-28T11:03:09;5.60;;;4.40;;
55186;SDS011;55457;52.002;5.464;2023-04-28T11:06:25;4.90;;;3.85;;
55186;SDS011;55457;52.002;5.464;2023-04-28T11:08:56;5.05;;;3.45;;
55186;SDS011;55457;52.002;5.464;2023-04-28T11:14:59;5.13;;;4.10;;
55186;SDS011;55457;52.002;5.464;2023-04-28T11:17:18;4.75;;;4.15;;
55186;SDS011;55457;52.002;5.464;2023-04-28T11:20:04;5.10;;;4.20;;
55186;SDS011;55457;52.002;5.464;2023-04-28T11:22:32;4.90;;;3.78;;
55186;SDS011;55457;52.002;5.464;2023-04-28T11:24:59;5.03;;;3.70;;
55186;SDS011;55457;52.002;5.464;2023-04-28T11:27:26;4.45;;;3.40;;
55186;SDS011;55457;52.002;5.464;2023-04-28T11:29:52;4.78;;;3.30;;
55186;SDS011;55457;52.002;5.464;2023-04-28T11:32:24;4.63;;;3.95;;
55186;SDS011;55457;52.002;5.464;2023-04-28T11:34:52;5.38;;;3.65;;
55186;SDS011;55457;52.002;5.464;2023-04-28T11:37:17;4.78;;;3.67;;
55186;SDS011;55457;52.002;5.464;2023-04-28T11:39:44;3.47;;;3.05;;
55186;SDS011;55457;52.002;5.464;2023-04-28T11:42:10;3.70;;;3.08;;
55186;SDS011;55457;52.002;5.464;2023-04-28T11:44:35;4.07;;;3.20;;
55186;SDS011;55457;52.002;5.464;2023-04-28T11:47:02;5.30;;;3.90;;
55186;SDS011;55457;52.002;5.464;2023-04-28T11:49:30;5.07;;;3.42;;
55186;SDS011;55457;52.002;5.464;2023-04-28T11:52:03;3.67;;;3.10;;
55186;SDS011;55457;52.002;5.464;2023-04-28T11:54:30;6.00;;;3.75;;
55186;SDS011;55457;52.002;5.464;2023-04-28T11:56:56;4.65;;;3.25;;
55186;SDS011;55457;52.002;5.464;2023-04-28T11:59:32;3.55;;;3.10;;
55186;SDS011;55457;52.002;5.464;2023-04-28T12:02:02;4.70;;;3.72;;
55186;SDS011;55457;52.002;5.464;2023-04-28T12:04:39;6.22;;;3.45;;
55186;SDS011;55457;52.002;5.464;2023-04-28T12:09:37;4.28;;;3.33;;
55186;SDS011;55457;52.002;5.464;2023-04-28T12:12:04;4.68;;;3.22;;
55186;SDS011;55457;52.002;5.464;2023-04-28T12:14:31;4.30;;;2.72;;
55186;SDS011;55457;52.002;5.464;2023-04-28T12:19:56;4.15;;;2.80;;
55186;SDS011;55457;52.002;5.464;2023-04-28T12:22:23;5.00;;;3.42;;
55186;SDS011;55457;52.002;5.464;2023-04-28T12:25:08;5.05;;;3.78;;
55186;SDS011;55457;52.002;5.464;2023-04-28T12:27:35;3.85;;;3.17;;
55186;SDS011;55457;52.002;5.464;2023-04-28T12:30:25;3.83;;;3.45;;
55186;SDS011;55457;52.002;5.464;2023-04-28T12:32:50;3.85;;;2.95;;
55186;SDS011;55457;52.002;5.464;2023-04-28T12:35:16;4.85;;;3.55;;
55186;SDS011;55457;52.002;5.464;2023-04-28T12:37:42;3.67;;;2.88;;
55186;SDS011;55457;52.002;5.464;2023-04-28T12:40:07;3.42;;;3.08;;
55186;SDS011;55457;52.002;5.464;2023-04-28T12:42:34;4.72;;;3.70;;
55186;SDS011;55457;52.002;5.464;2023-04-28T12:44:59;4.85;;;3.33;;
55186;SDS011;55457;52.002;5.464;2023-04-28T12:47:25;4.43;;;3.47;;
55186;SDS011;55457;52.002;5.464;2023-04-28T12:49:50;4.05;;;3.20;;
55186;SDS011;55457;52.002;5.464;2023-04-28T12:52:17;4.65;;;2.85;;
55186;SDS011;55457;52.002;5.464;2023-04-28T12:54:44;3.90;;;3.20;;
55186;SDS011;55457;52.002;5.464;2023-04-28T12:57:13;4.45;;;3.13;;
55186;SDS011;55457;52.002;5.464;2023-04-28T12:59:42;4.00;;;2.88;;
55186;SDS011;55457;52.002;5.464;2023-04-28T13:02:08;3.80;;;3.05;;
55186;SDS011;55457;52.002;5.464;2023-04-28T13:04:33;3.67;;;2.58;;
55186;SDS011;55457;52.002;5.464;2023-04-28T13:06:59;4.18;;;2.88;;
55186;SDS011;55457;52.002;5.464;2023-04-28T13:09:25;3.47;;;2.65;;
55186;SDS011;55457;52.002;5.464;2023-04-28T13:11:51;3.20;;;2.55;;
55186;SDS011;55457;52.002;5.464;2023-04-28T13:14:17;3.58;;;2.47;;
55186;SDS011;55457;52.002;5.464;2023-04-28T13:16:43;4.03;;;2.90;;
55186;SDS011;55457;52.002;5.464;2023-04-28T13:19:09;3.63;;;2.65;;
55186;SDS011;55457;52.002;5.464;2023-04-28T13:21:37;4.38;;;2.65;;
55186;SDS011;55457;52.002;5.464;2023-04-28T13:24:03;3.25;;;2.58;;
55186;SDS011;55457;52.002;5.464;2023-04-28T13:26:29;3.60;;;2.90;;
55186;SDS011;55457;52.002;5.464;2023-04-28T13:28:55;3.65;;;2.88;;
55186;SDS011;55457;52.002;5.464;2023-04-28T13:31:20;4.20;;;3.15;;
55186;SDS011;55457;52.002;5.464;2023-04-28T13:33:46;3.72;;;2.80;;
55186;SDS011;55457;52.002;5.464;2023-04-28T13:36:11;3.53;;;2.75;;
55186;SDS011;55457;52.002;5.464;2023-04-28T13:38:37;3.80;;;2.78;;
55186;SDS011;55457;52.002;5.464;2023-04-28T13:41:02;4.25;;;2.95;;
55186;SDS011;55457;52.002;5.464;2023-04-28T13:43:28;3.58;;;2.65;;
55186;SDS011;55457;52.002;5.464;2023-04-28T13:45:55;3.67;;;2.70;;
55186;SDS011;55457;52.002;5.464;2023-04-28T13:48:20;3.65;;;2.45;;
55186;SDS011;55457;52.002;5.464;2023-04-28T13:50:45;4.28;;;2.83;;
55186;SDS011;55457;52.002;5.464;2023-04-28T13:53:11;3.28;;;2.70;;
55186;SDS011;55457;52.002;5.464;2023-04-28T13:55:36;3.88;;;2.85;;
55186;SDS011;55457;52.002;5.464;2023-04-28T13:58:01;2.75;;;2.35;;
55186;SDS011;55457;52.002;5.464;2023-04-28T14:00:32;3.33;;;2.63;;
55186;SDS011;55457;52.002;5.464;2023-04-28T14:02:58;3.50;;;2.70;;
55186;SDS011;55457;52.002;5.464;2023-04-28T14:05:25;3.42;;;2.80;;
55186;SDS011;55457;52.002;5.464;2023-04-28T14:07:54;4.30;;;2.90;;
55186;SDS011;55457;52.002;5.464;2023-04-28T14:10:20;3.28;;;2.25;;
55186;SDS011;55457;52.002;5.464;2023-04-28T14:12:46;2.50;;;2.28;;
55186;SDS011;55457;52.002;5.464;2023-04-28T14:15:12;3.15;;;2.67;;
55186;SDS011;55457;52.002;5.464;2023-04-28T14:17:38;2.80;;;2.25;;
55186;SDS011;55457;52.002;5.464;2023-04-28T14:20:03;3.25;;;2.53;;
55186;SDS011;55457;52.002;5.464;2023-04-28T14:22:29;2.65;;;2.22;;
55186;SDS011;55457;52.002;5.464;2023-04-28T14:24:54;3.33;;;2.78;;
55186;SDS011;55457;52.002;5.464;2023-04-28T14:27:20;3.35;;;2.72;;
55186;SDS011;55457;52.002;5.464;2023-04-28T14:29:46;3.53;;;2.90;;
55186;SDS011;55457;52.002;5.464;2023-04-28T14:32:13;3.20;;;2.45;;
55186;SDS011;55457;52.002;5.464;2023-04-28T14:34:45;3.20;;;2.50;;
55186;SDS011;55457;52.002;5.464;2023-04-28T14:37:12;3.03;;;2.50;;
55186;SDS011;55457;52.002;5.464;2023-04-28T14:39:38;4.05;;;2.85;;
55186;SDS011;55457;52.002;5.464;2023-04-28T14:42:03;4.22;;;3.47;;
55186;SDS011;55457;52.002;5.464;2023-04-28T14:44:29;3.50;;;2.72;;
55186;SDS011;55457;52.002;5.464;2023-04-28T14:46:54;3.03;;;2.67;;
55186;SDS011;55457;52.002;5.464;2023-04-28T14:49:20;3.97;;;3.17;;
55186;SDS011;55457;52.002;5.464;2023-04-28T14:51:45;4.22;;;2.83;;
55186;SDS011;55457;52.002;5.464;2023-04-28T14:54:11;2.95;;;2.65;;
55186;SDS011;55457;52.002;5.464;2023-04-28T14:56:37;3.03;;;2.42;;
55186;SDS011;55457;52.002;5.464;2023-04-28T14:59:03;4.25;;;2.80;;
55186;SDS011;55457;52.002;5.464;2023-04-28T15:01:29;3.45;;;2.92;;
55186;SDS011;55457;52.002;5.464;2023-04-28T15:03:54;3.85;;;2.58;;
55186;SDS011;55457;52.002;5.464;2023-04-28T15:06:20;3.47;;;2.95;;
55186;SDS011;55457;52.002;5.464;2023-04-28T15:08:46;4.25;;;2.97;;
55186;SDS011;55457;52.002;5.464;2023-04-28T15:11:11;3.65;;;2.70;;
55186;SDS011;55457;52.002;5.464;2023-04-28T15:13:36;3.33;;;2.83;;